Time;durP1;ratioP1;P1;durP2;ratioP2;P2;SDS_P1;SDS_P2;PMS_P1;PMS_P2;Temp;Humidity;BMP_temperature;BMP_pressure;BME280_temperature;BME280_humidity;BME280_pressure;Samples;Min_cycle;Max_cycle;Signal;HPM_P1;HPM_P2
2022/05/15 00:03:50;;;;;;;8.77;3.00;;;12.50;99.90;;;;;;8343598;28;20299;-77
2022/05/15 00:07:52;;;;;;;8.90;3.23;;;12.40;99.90;;;;;;8342058;28;20193;-77
2022/05/15 00:11:53;;;;;;;4.63;2.87;;;12.30;99.90;;;;;;8334480;28;20214;-79
2022/05/15 00:15:54;;;;;;;5.73;2.90;;;12.20;1.00;;;;;;8324300;28;20229;-78
2022/05/15 00:19:55;;;;;;;6.30;3.40;;;12.20;1.00;;;;;;8316553;28;20283;-78
2022/05/15 00:23:55;;;;;;;4.23;2.63;;;12.10;1.00;;;;;;8326832;28;20381;-78
2022/05/15 00:27:58;;;;;;;6.67;3.10;;;12.10;1.00;;;;;;8329060;28;20211;-79
2022/05/15 00:31:59;;;;;;;6.30;3.37;;;12.00;1.00;;;;;;8323477;28;20210;-77
2022/05/15 00:35:59;;;;;;;6.93;3.40;;;11.90;1.00;;;;;;8332827;28;20512;-78
2022/05/15 00:40:01;;;;;;;7.87;3.33;;;11.80;95.10;;;;;;8329779;28;20345;-78
2022/05/15 00:44:02;;;;;;;6.50;3.60;;;11.70;96.60;;;;;;8328480;28;20191;-77
2022/05/15 00:48:03;;;;;;;7.63;3.73;;;11.60;99.90;;;;;;8323722;28;20226;-77
2022/05/15 00:52:08;;;;;;;6.53;3.20;;;11.40;99.90;;;;;;8344054;28;20238;-78
2022/05/15 00:56:10;;;;;;;6.27;3.50;;;11.30;99.90;;;;;;8323343;28;20259;-78
2022/05/15 01:00:15;;;;;;;5.33;3.23;;;11.10;1.00;;;;;;8319079;28;20186;-79
2022/05/15 01:04:16;;;;;;;6.40;3.20;;;10.90;1.00;;;;;;8343695;28;20221;-78
2022/05/15 01:08:18;;;;;;;3.53;2.90;;;10.70;1.00;;;;;;8331217;28;20239;-78
2022/05/15 01:12:19;;;;;;;4.93;3.20;;;10.50;99.90;;;;;;8329124;28;20202;-77
2022/05/15 01:16:23;;;;;;;4.70;2.83;;;10.40;99.90;;;;;;8325751;28;20201;-78
2022/05/15 01:20:28;;;;;;;5.07;3.27;;;10.20;99.90;;;;;;8325366;28;20185;-78
2022/05/15 01:24:29;;;;;;;4.70;3.20;;;10.10;1.00;;;;;;8322882;28;20190;-78
2022/05/15 01:28:30;;;;;;;5.33;3.23;;;10.00;1.00;;;;;;8335473;28;20292;-78
2022/05/15 01:32:32;;;;;;;5.37;3.73;;;9.80;12.00;;;;;;8315769;28;20522;-77
2022/05/15 01:36:33;;;;;;;4.57;3.07;;;9.60;99.90;;;;;;8319419;28;20209;-77
2022/05/15 01:40:34;;;;;;;3.97;2.97;;;9.50;99.90;;;;;;8327437;28;20210;-78
2022/05/15 01:44:35;;;;;;;4.50;3.10;;;9.30;1.00;;;;;;8329920;28;20256;-78
2022/05/15 01:48:37;;;;;;;4.90;3.27;;;9.10;94.10;;;;;;8338210;28;20182;-79
2022/05/15 01:52:37;;;;;;;8.33;3.33;;;9.00;99.90;;;;;;8341321;28;20212;-78
2022/05/15 01:56:39;;;;;;;4.67;3.17;;;8.80;1.00;;;;;;8329617;28;20189;-77
2022/05/15 02:00:40;;;;;;;7.30;3.50;;;8.70;55.10;;;;;;8331189;28;20189;-78
2022/05/15 02:04:41;;;;;;;5.97;3.80;;;8.60;99.90;;;;;;8349287;28;20249;-77
2022/05/15 02:08:42;;;;;;;6.00;3.80;;;8.50;1.00;;;;;;8326306;28;20183;-78
2022/05/15 02:12:43;;;;;;;4.23;3.43;;;8.30;1.80;;;;;;8324285;28;20210;-78
2022/05/15 02:16:44;;;;;;;5.50;3.20;;;8.20;99.90;;;;;;8320739;28;20185;-78
2022/05/15 02:20:45;;;;;;;4.83;3.07;;;8.10;99.90;;;;;;8320434;28;20213;-78
2022/05/15 02:24:46;;;;;;;3.97;3.10;;;8.00;1.00;;;;;;8320381;28;20253;-77
2022/05/15 02:28:47;;;;;;;6.77;3.63;;;7.90;1.00;;;;;;8322678;28;20213;-78
2022/05/15 02:32:48;;;;;;;4.87;3.53;;;7.80;99.90;;;;;;8326034;28;20221;-78
2022/05/15 02:36:48;;;;;;;5.43;3.53;;;7.70;1.00;;;;;;8322695;28;20190;-78
2022/05/15 02:40:49;;;;;;;4.80;3.33;;;7.60;99.90;;;;;;8332784;28;20206;-78
2022/05/15 02:44:50;;;;;;;4.37;3.10;;;7.50;95.40;;;;;;8320565;28;20189;-79
2022/05/15 02:53:14;;;;;;;3.50;3.20;;;7.40;99.90;;;;;;8338300;28;20248;-78
2022/05/15 02:57:15;;;;;;;6.00;3.87;;;7.40;67.80;;;;;;8324181;28;20194;-78
2022/05/15 03:01:17;;;;;;;5.80;3.80;;;7.40;99.90;;;;;;8323219;28;20187;-79
2022/05/15 03:05:19;;;;;;;4.87;3.87;;;7.30;1.00;;;;;;8320639;28;20281;-78
2022/05/15 03:09:20;;;;;;;5.87;3.33;;;7.30;1.00;;;;;;8320290;28;20190;-78
2022/05/15 03:13:21;;;;;;;5.50;3.50;;;7.30;1.00;;;;;;8328350;28;20228;-78
2022/05/15 03:17:21;;;;;;;6.33;4.57;;;7.20;1.00;;;;;;8319980;28;20385;-78
2022/05/15 03:21:31;;;;;;;5.37;3.43;;;7.20;99.90;;;;;;8314214;28;20258;-75
2022/05/15 03:25:33;;;;;;;6.53;4.07;;;7.20;99.90;;;;;;8331894;28;20186;-75
2022/05/15 03:29:34;;;;;;;5.10;4.00;;;7.30;99.90;;;;;;8323782;28;20304;-76
2022/05/15 03:33:38;;;;;;;5.50;3.40;;;7.40;97.20;;;;;;8344383;28;20234;-79
2022/05/15 03:37:39;;;;;;;4.40;3.40;;;7.50;99.90;;;;;;8341538;28;20204;-75
2022/05/15 03:41:41;;;;;;;6.23;3.80;;;7.60;99.90;;;;;;8325837;28;20207;-77
2022/05/15 03:45:43;;;;;;;7.20;4.10;;;7.70;1.00;;;;;;8330827;28;20190;-77
2022/05/15 03:49:44;;;;;;;7.43;4.07;;;8.00;99.90;;;;;;8326145;28;20186;-79
2022/05/15 03:53:45;;;;;;;6.53;3.73;;;8.70;1.00;;;;;;8322374;28;20214;-75
2022/05/15 03:57:46;;;;;;;4.90;3.60;;;9.80;99.90;;;;;;8344925;28;20432;-79
2022/05/15 04:01:47;;;;;;;5.70;3.30;;;10.80;33.60;;;;;;8342831;28;20269;-75
2022/05/15 04:05:48;;;;;;;5.00;3.40;;;11.80;1.00;;;;;;8325954;28;20193;-75
2022/05/15 04:09:50;;;;;;;4.77;3.40;;;12.70;1.00;;;;;;8326537;28;20201;-75
2022/05/15 04:13:50;;;;;;;7.20;3.37;;;13.40;84.20;;;;;;8331983;28;20219;-77
2022/05/15 04:17:51;;;;;;;4.47;3.10;;;14.00;99.90;;;;;;8340713;28;20184;-76
2022/05/15 04:21:58;;;;;;;4.63;2.83;;;14.60;99.90;;;;;;8320082;28;20600;-75
2022/05/15 04:25:59;;;;;;;6.87;3.33;;;15.00;86.30;;;;;;8323087;28;20191;-76
2022/05/15 04:30:00;;;;;;;4.53;2.83;;;15.50;1.00;;;;;;8327562;28;20197;-75
2022/05/15 04:34:01;;;;;;;7.17;3.50;;;15.80;1.00;;;;;;8344353;28;20218;-77
2022/05/15 04:38:02;;;;;;;7.93;3.67;;;16.20;1.00;;;;;;8333693;28;20186;-77
2022/05/15 04:42:04;;;;;;;8.20;4.33;;;16.40;99.90;;;;;;8323985;28;20206;-76
2022/05/15 04:46:07;;;;;;;7.27;4.17;;;16.20;99.90;;;;;;8339622;28;20193;-78
2022/05/15 04:50:09;;;;;;;9.20;3.90;;;15.90;1.00;;;;;;8323318;28;20209;-80
2022/05/15 04:54:10;;;;;;;6.90;3.63;;;15.30;1.00;;;;;;8341071;28;20340;-75
2022/05/15 04:58:11;;;;;;;7.17;3.07;;;14.80;1.00;;;;;;8330913;28;20251;-78
2022/05/15 05:02:12;;;;;;;8.10;3.00;;;14.70;1.00;;;;;;8333722;28;20194;-76
2022/05/15 05:06:13;;;;;;;6.97;3.47;;;14.10;1.00;;;;;;8340288;28;20190;-79
2022/05/15 05:10:15;;;;;;;8.97;3.50;;;13.60;99.90;;;;;;8326154;28;20346;-74
2022/05/15 05:14:16;;;;;;;10.30;3.17;;;13.20;1.00;;;;;;8324615;28;20221;-79
2022/05/15 05:18:18;;;;;;;10.13;3.53;;;13.10;99.90;;;;;;8317865;28;20209;-75
2022/05/15 05:22:19;;;;;;;6.30;3.10;;;13.00;1.00;;;;;;8320197;28;20192;-75
2022/05/15 05:26:20;;;;;;;5.03;2.73;;;13.00;1.00;;;;;;8330211;28;20277;-77
2022/05/15 05:30:24;;;;;;;5.77;2.47;;;12.90;99.90;;;;;;8329509;28;20248;-75
2022/05/15 05:34:24;;;;;;;6.47;2.20;;;12.70;1.00;;;;;;8314012;28;20268;-76
2022/05/15 05:38:25;;;;;;;8.23;2.57;;;12.70;99.90;;;;;;8332008;28;20181;-75
2022/05/15 05:42:26;;;;;;;4.33;2.00;;;12.70;99.90;;;;;;8341692;28;20224;-79
2022/05/15 05:46:28;;;;;;;5.27;2.43;;;12.80;99.90;;;;;;8326461;28;20200;-76
2022/05/15 05:50:29;;;;;;;7.37;2.30;;;12.90;99.90;;;;;;8331515;28;20213;-74
2022/05/15 05:54:30;;;;;;;7.53;2.33;;;13.00;99.90;;;;;;8319164;28;20210;-76
2022/05/15 05:58:32;;;;;;;4.57;1.97;;;13.10;99.90;;;;;;8324799;28;20249;-78
2022/05/15 06:02:32;;;;;;;8.03;2.20;;;13.30;46.20;;;;;;8326840;28;20192;-75
2022/05/15 06:06:33;;;;;;;4.30;1.57;;;13.30;48.90;;;;;;8322994;28;20201;-80
2022/05/15 06:10:34;;;;;;;3.77;1.70;;;13.40;1.00;;;;;;8342997;28;20193;-76
2022/05/15 06:14:36;;;;;;;6.00;1.70;;;13.60;1.00;;;;;;8315459;28;20213;-75
2022/05/15 06:18:36;;;;;;;5.10;1.90;;;13.70;1.00;;;;;;8319916;28;20281;-75
2022/05/15 06:22:37;;;;;;;8.33;2.23;;;14.00;1.00;;;;;;8324865;28;20197;-77
2022/05/15 06:26:38;;;;;;;7.17;1.93;;;14.20;1.00;;;;;;8340389;28;20202;-75
2022/05/15 06:30:39;;;;;;;4.93;1.37;;;14.40;1.00;;;;;;8336032;28;20190;-76
2022/05/15 06:34:40;;;;;;;3.77;1.27;;;14.40;1.00;;;;;;8337872;28;20213;-79
2022/05/15 06:38:42;;;;;;;4.97;1.60;;;14.40;99.90;;;;;;8344253;28;20220;-77
2022/05/15 06:42:44;;;;;;;5.00;1.53;;;14.60;99.90;;;;;;8317107;28;20587;-79
2022/05/15 06:46:46;;;;;;;2.87;1.43;;;14.60;99.90;;;;;;8332958;28;20204;-79
2022/05/15 06:50:49;;;;;;;3.37;1.30;;;14.70;99.90;;;;;;8324738;28;20198;-75
2022/05/15 06:54:50;;;;;;;2.10;1.00;;;14.80;99.90;;;;;;8314841;28;20288;-74
2022/05/15 06:58:51;;;;;;;3.73;1.17;;;14.80;99.90;;;;;;8320042;28;20190;-76
2022/05/15 07:02:52;;;;;;;4.03;1.90;;;14.90;99.90;;;;;;8320035;28;20185;-76
2022/05/15 07:06:53;;;;;;;5.40;1.30;;;14.90;99.90;;;;;;8327122;28;20275;-75
2022/05/15 07:10:54;;;;;;;2.23;1.20;;;14.90;99.90;;;;;;8337091;28;20252;-75
2022/05/15 07:14:55;;;;;;;4.27;1.00;;;14.90;99.90;;;;;;8315881;28;20225;-75
2022/05/15 07:18:55;;;;;;;4.57;1.50;;;15.10;99.90;;;;;;8331299;28;20205;-75
2022/05/15 07:22:57;;;;;;;5.43;1.50;;;15.20;99.90;;;;;;8331260;28;20268;-78
2022/05/15 07:26:58;;;;;;;3.47;1.40;;;15.20;99.90;;;;;;8326918;28;20284;-75
2022/05/15 07:30:58;;;;;;;7.30;1.50;;;15.40;99.90;;;;;;8329512;28;20178;-76
2022/05/15 07:34:59;;;;;;;4.57;1.67;;;15.70;99.90;;;;;;8326238;28;20221;-74
2022/05/15 07:39:00;;;;;;;5.20;1.50;;;15.50;99.90;;;;;;8326094;28;20194;-76
2022/05/15 07:43:05;;;;;;;4.73;1.17;;;15.70;99.90;;;;;;8329879;28;20178;-76
2022/05/15 07:47:08;;;;;;;6.83;1.80;;;15.80;99.90;;;;;;8333843;28;20217;-76
2022/05/15 07:51:09;;;;;;;5.60;1.50;;;15.70;99.90;;;;;;8345058;28;20305;-78
2022/05/15 07:55:11;;;;;;;5.63;1.93;;;15.70;99.90;;;;;;8330357;28;20215;-74
2022/05/15 07:59:12;;;;;;;7.37;1.47;;;15.90;99.90;;;;;;8341978;28;20205;-76
2022/05/15 08:03:13;;;;;;;5.67;1.40;;;16.00;99.90;;;;;;8329095;28;20301;-75
2022/05/15 08:11:36;;;;;;;5.23;1.43;;;16.50;99.90;;;;;;8349433;28;20245;-75
2022/05/15 08:15:37;;;;;;;2.70;1.27;;;16.80;99.90;;;;;;8340946;28;20206;-76
2022/05/15 08:24:01;;;;;;;7.23;1.70;;;16.80;99.90;;;;;;8345897;28;20247;-77
2022/05/15 08:28:01;;;;;;;4.30;1.57;;;16.80;99.90;;;;;;8341516;28;20205;-78
2022/05/15 08:32:03;;;;;;;4.73;1.73;;;16.90;99.90;;;;;;8342003;28;20269;-77
2022/05/15 08:36:06;;;;;;;6.57;1.50;;;16.90;99.90;;;;;;8328705;28;20310;-77
2022/05/15 08:40:07;;;;;;;6.23;1.60;;;17.00;99.90;;;;;;8326525;28;20199;-77
2022/05/15 08:44:27;;;;;;;5.00;1.57;;;17.30;99.90;;;;;;8322799;28;20190;-76
2022/05/15 08:48:31;;;;;;;7.47;1.77;;;17.50;99.90;;;;;;8321861;28;20190;-76
2022/05/15 08:52:38;;;;;;;4.03;1.33;;;17.20;99.90;;;;;;8322710;28;20207;-77
2022/05/15 08:56:45;;;;;;;5.37;1.60;;;17.20;99.90;;;;;;8337967;28;20183;-80
2022/05/15 09:00:50;;;;;;;3.90;1.40;;;17.40;99.90;;;;;;8331973;28;20289;-76
2022/05/15 09:04:52;;;;;;;4.73;1.67;;;17.70;99.90;;;;;;8331121;28;20194;-77
2022/05/15 09:09:02;;;;;;;3.63;1.40;;;18.00;99.90;;;;;;8324824;28;20190;-78
2022/05/15 09:13:34;;;;;;;5.50;1.60;;;17.50;99.90;;;;;;8323992;28;20210;-80
2022/05/15 09:17:47;;;;;;;3.83;1.40;;;17.80;99.90;;;;;;8343922;28;20209;-80
2022/05/15 09:21:52;;;;;;;4.23;1.33;;;18.10;99.90;;;;;;8327909;28;20181;-76
2022/05/15 09:25:59;;;;;;;6.77;1.40;;;18.30;92.10;;;;;;8343958;28;20182;-76
2022/05/15 09:30:08;;;;;;;5.63;1.50;;;18.10;60.80;;;;;;8339748;28;20202;-80
2022/05/15 09:34:21;;;;;;;9.63;1.90;;;17.80;67.90;;;;;;8321594;28;20264;-76
2022/05/15 09:38:29;;;;;;;7.23;1.60;;;17.90;50.00;;;;;;8340514;28;20175;-76
2022/05/15 09:47:00;;;;;;;5.40;1.47;;;18.30;60.60;;;;;;8343717;28;20216;-76
2022/05/15 09:51:07;;;;;;;3.70;1.13;;;18.70;87.00;;;;;;8320852;28;20208;-76
2022/05/15 09:55:24;;;;;;;3.17;1.67;;;19.40;17.00;;;;;;8333283;28;20205;-75
2022/05/15 09:59:26;;;;;;;4.73;1.33;;;19.30;1.00;;;;;;8322708;28;20493;-77
2022/05/15 10:03:27;;;;;;;5.90;1.40;;;18.50;30.00;;;;;;8323819;28;20189;-78
2022/05/15 10:07:35;;;;;;;3.57;1.10;;;18.10;29.60;;;;;;8329417;28;20236;-76
2022/05/15 10:11:43;;;;;;;3.40;1.40;;;18.70;45.40;;;;;;8328174;28;20188;-76
2022/05/15 10:15:49;;;;;;;3.67;1.10;;;19.40;5.40;;;;;;8312826;28;20209;-79
2022/05/15 10:20:04;;;;;;;3.57;1.30;;;19.40;1.00;;;;;;8329256;28;20194;-77
2022/05/15 10:24:20;;;;;;;2.43;1.00;;;19.80;1.00;;;;;;8339782;28;20193;-76
2022/05/15 10:28:27;;;;;;;4.57;1.57;;;20.50;1.00;;;;;;8325156;28;20201;-76
2022/05/15 10:32:28;;;;;;;2.77;1.20;;;20.60;1.00;;;;;;8327182;28;20213;-80
2022/05/15 10:36:51;;;;;;;2.63;1.03;;;19.30;1.00;;;;;;8324254;28;20183;-80
2022/05/15 10:41:00;;;;;;;5.33;1.77;;;19.10;1.00;;;;;;8328968;28;20232;-80
2022/05/15 10:45:31;;;;;;;5.50;1.53;;;19.50;1.00;;;;;;8328904;28;20188;-77
2022/05/15 10:49:37;;;;;;;5.47;1.20;;;19.80;1.00;;;;;;8292625;28;20493;-76
2022/05/15 10:58:31;;;;;;;3.17;1.10;;;20.60;1.00;;;;;;8347597;28;20204;-76
2022/05/15 11:02:50;;;;;;;5.17;1.40;;;20.30;1.00;;;;;;8327409;28;20209;-76
2022/05/15 11:07:14;;;;;;;3.37;1.17;;;19.80;1.00;;;;;;8345676;28;20251;-76
2022/05/15 11:11:32;;;;;;;2.97;1.03;;;19.90;1.00;;;;;;8339166;28;20276;-79
2022/05/15 11:15:51;;;;;;;3.10;1.40;;;20.50;1.00;;;;;;8334200;28;20212;-80
2022/05/15 11:19:56;;;;;;;3.93;1.00;;;20.10;1.00;;;;;;8320382;28;20178;-79
2022/05/15 11:24:32;;;;;;;4.30;1.20;;;20.40;1.00;;;;;;8338566;28;20181;-77
2022/05/15 11:28:42;;;;;;;2.57;0.90;;;20.70;1.00;;;;;;8350885;28;20193;-77
2022/05/15 11:32:46;;;;;;;3.93;1.10;;;21.10;1.00;;;;;;8348720;28;20193;-78
2022/05/15 11:36:49;;;;;;;4.70;1.50;;;21.50;1.00;;;;;;8340110;28;20215;-81
2022/05/15 11:40:52;;;;;;;2.40;1.20;;;21.10;1.00;;;;;;8345970;28;20255;-76
2022/05/15 11:44:53;;;;;;;3.13;1.30;;;20.30;1.00;;;;;;8331451;28;20194;-81
2022/05/15 11:48:58;;;;;;;3.70;0.90;;;20.00;1.00;;;;;;8331455;28;20264;-80
2022/05/15 11:52:59;;;;;;;3.40;1.00;;;20.20;1.00;;;;;;8325685;28;20240;-80
2022/05/15 11:57:03;;;;;;;5.20;1.33;;;20.40;1.00;;;;;;8334091;28;20174;-78
2022/05/15 12:01:05;;;;;;;2.40;1.00;;;20.30;1.00;;;;;;8327021;28;20193;-76
2022/05/15 12:05:24;;;;;;;1.97;1.10;;;20.20;1.00;;;;;;8330779;28;20217;-77
2022/05/15 12:09:39;;;;;;;4.63;1.00;;;20.40;1.00;;;;;;8344320;28;20269;-81
2022/05/15 12:13:42;;;;;;;3.27;1.20;;;20.50;1.00;;;;;;8333965;28;20202;-76
2022/05/15 12:18:08;;;;;;;2.80;0.70;;;20.60;1.00;;;;;;8329149;28;20193;-77
2022/05/15 12:22:12;;;;;;;4.77;1.40;;;20.60;1.00;;;;;;8330935;28;20347;-76
2022/05/15 12:26:21;;;;;;;3.60;1.20;;;20.80;1.00;;;;;;8334771;28;20175;-78
2022/05/15 12:30:22;;;;;;;3.93;0.90;;;21.00;1.00;;;;;;8331080;28;20189;-78
2022/05/15 12:34:27;;;;;;;2.10;0.90;;;21.10;1.00;;;;;;8326404;28;20205;-76
2022/05/15 12:38:27;;;;;;;4.13;0.90;;;21.10;1.00;;;;;;8330458;28;20174;-77
2022/05/15 12:42:33;;;;;;;2.17;0.80;;;20.90;1.00;;;;;;8326566;28;20182;-78
2022/05/15 12:46:38;;;;;;;2.70;1.23;;;21.00;1.00;;;;;;8330522;28;20194;-77
2022/05/15 12:51:01;;;;;;;3.17;1.17;;;21.30;1.00;;;;;;8331755;28;20255;-77
2022/05/15 12:55:31;;;;;;;3.17;1.10;;;21.40;1.00;;;;;;8332291;28;20542;-78
2022/05/15 12:59:40;;;;;;;2.93;1.20;;;21.50;1.00;;;;;;8327664;28;20255;-78
2022/05/15 13:03:48;;;;;;;2.60;1.10;;;21.60;1.00;;;;;;8332124;28;20193;-76
2022/05/15 13:07:55;;;;;;;2.67;1.00;;;21.40;1.00;;;;;;8345907;28;20179;-76
2022/05/15 13:11:59;;;;;;;6.13;1.33;;;21.50;1.00;;;;;;8335649;28;20181;-79
2022/05/15 13:16:05;;;;;;;2.13;0.83;;;21.40;1.00;;;;;;8322919;28;20214;-75
2022/05/15 13:20:15;;;;;;;2.80;1.00;;;20.90;1.00;;;;;;8326177;28;20319;-75
2022/05/15 13:24:17;;;;;;;2.57;0.93;;;21.10;1.00;;;;;;8317619;28;20570;-75
2022/05/15 13:28:18;;;;;;;1.90;0.80;;;21.00;1.00;;;;;;8325236;28;20202;-75
2022/05/15 13:32:20;;;;;;;2.80;1.10;;;21.10;1.00;;;;;;8323311;28;20213;-76
2022/05/15 13:36:21;;;;;;;3.33;0.90;;;21.40;1.00;;;;;;8336118;28;20190;-76
2022/05/15 13:44:49;;;;;;;2.03;0.90;;;21.40;1.00;;;;;;8339670;28;20269;-77
2022/05/15 13:48:54;;;;;;;3.03;1.00;;;21.40;1.00;;;;;;8332597;28;20195;-79
2022/05/15 13:53:18;;;;;;;4.70;1.10;;;21.50;1.00;;;;;;8320983;28;20204;-76
2022/05/15 13:57:19;;;;;;;4.33;1.20;;;21.80;1.00;;;;;;8333855;28;20182;-77
2022/05/15 14:01:27;;;;;;;1.33;0.70;;;21.40;1.00;;;;;;8322867;28;20179;-76
2022/05/15 14:05:39;;;;;;;1.90;0.70;;;21.20;1.00;;;;;;8345961;28;20177;-76
2022/05/15 14:09:46;;;;;;;2.57;0.80;;;21.40;1.00;;;;;;8330889;28;20511;-76
2022/05/15 14:13:52;;;;;;;1.83;0.80;;;21.50;1.00;;;;;;8344561;28;20203;-75
2022/05/15 14:17:58;;;;;;;2.70;1.07;;;21.70;1.00;;;;;;8325153;28;20190;-80
2022/05/15 14:22:04;;;;;;;2.13;0.90;;;21.60;1.00;;;;;;8323045;28;20206;-80
2022/05/15 14:26:06;;;;;;;3.07;0.90;;;21.40;1.00;;;;;;8327871;28;20185;-76
2022/05/15 14:30:08;;;;;;;2.83;1.10;;;21.40;1.00;;;;;;8321945;28;20194;-80
2022/05/15 14:34:09;;;;;;;1.53;0.77;;;21.50;1.00;;;;;;8338014;28;20526;-75
2022/05/15 14:38:10;;;;;;;2.40;0.90;;;21.70;1.00;;;;;;8348218;28;20245;-80
2022/05/15 14:42:11;;;;;;;3.37;0.90;;;21.80;1.00;;;;;;8325569;28;20334;-80
2022/05/15 14:46:19;;;;;;;1.77;0.80;;;21.80;1.00;;;;;;8327754;28;20255;-76
2022/05/15 14:50:21;;;;;;;1.90;0.90;;;21.60;1.00;;;;;;8329451;28;20190;-77
2022/05/15 14:54:24;;;;;;;1.63;0.83;;;21.60;1.00;;;;;;8343296;28;20210;-76
2022/05/15 14:58:26;;;;;;;2.20;0.87;;;21.70;1.00;;;;;;8324496;28;20347;-78
2022/05/15 15:02:28;;;;;;;2.23;1.10;;;21.80;1.00;;;;;;8317762;28;20206;-80
2022/05/15 15:06:29;;;;;;;2.70;0.93;;;22.00;1.00;;;;;;8318257;28;20186;-78
2022/05/15 15:10:29;;;;;;;2.23;1.13;;;22.00;1.00;;;;;;8338989;28;20196;-76
2022/05/15 15:14:30;;;;;;;2.80;0.90;;;22.10;1.00;;;;;;8323256;28;20217;-77
2022/05/15 15:18:32;;;;;;;2.17;0.80;;;21.90;1.00;;;;;;8328926;28;20205;-78
2022/05/15 15:22:33;;;;;;;1.37;0.77;;;21.90;1.00;;;;;;8331276;28;20182;-77
2022/05/15 15:26:35;;;;;;;4.87;0.97;;;21.80;1.00;;;;;;8320252;28;20198;-76
2022/05/15 15:30:36;;;;;;;1.90;0.90;;;21.70;1.00;;;;;;8333199;28;20198;-76
2022/05/15 15:34:39;;;;;;;4.33;0.77;;;21.50;1.00;;;;;;8325240;28;20213;-79
2022/05/15 15:38:40;;;;;;;2.63;1.20;;;21.20;1.00;;;;;;8328655;28;20289;-82
2022/05/15 15:42:42;;;;;;;2.17;0.97;;;21.30;1.00;;;;;;8339044;28;20229;-81
2022/05/15 15:46:43;;;;;;;4.20;1.10;;;21.50;1.00;;;;;;8332090;28;20320;-77
2022/05/15 15:50:44;;;;;;;3.63;0.90;;;21.60;1.00;;;;;;8343032;28;20183;-76
2022/05/15 15:54:45;;;;;;;2.70;0.87;;;21.70;1.00;;;;;;8325289;28;20323;-80
2022/05/15 15:58:47;;;;;;;3.20;1.10;;;21.70;1.00;;;;;;8344502;28;20178;-76
2022/05/15 16:02:48;;;;;;;4.07;1.50;;;21.80;1.00;;;;;;8328930;28;20186;-78
2022/05/15 16:06:49;;;;;;;4.20;3.10;;;21.70;1.00;;;;;;8326316;28;20194;-78
2022/05/15 16:10:50;;;;;;;2.30;1.10;;;21.70;1.00;;;;;;8338662;28;20189;-80
2022/05/15 16:14:52;;;;;;;2.63;1.00;;;21.80;1.00;;;;;;8325950;28;20221;-76
2022/05/15 16:18:53;;;;;;;3.97;0.90;;;21.80;1.00;;;;;;8330233;28;20190;-80
2022/05/15 16:22:54;;;;;;;14.37;1.67;;;21.80;1.00;;;;;;8324082;28;20304;-76
2022/05/15 16:27:03;;;;;;;3.33;1.07;;;21.70;1.00;;;;;;8332386;28;20296;-77
2022/05/15 16:31:05;;;;;;;5.97;2.20;;;21.40;1.00;;;;;;8324512;28;20186;-77
2022/05/15 16:35:08;;;;;;;2.10;0.80;;;21.20;1.00;;;;;;8344789;28;20209;-78
2022/05/15 16:39:10;;;;;;;3.73;0.90;;;21.10;1.00;;;;;;8327772;28;20189;-78
2022/05/15 16:43:12;;;;;;;16.53;5.70;;;21.10;1.00;;;;;;8327449;28;20192;-77
2022/05/15 16:47:13;;;;;;;2.93;1.00;;;20.90;1.00;;;;;;8319986;28;20306;-77
2022/05/15 16:51:14;;;;;;;3.27;1.03;;;20.90;1.00;;;;;;8321308;28;20197;-76
2022/05/15 16:55:16;;;;;;;3.00;0.87;;;21.00;1.00;;;;;;8326988;28;20202;-77
2022/05/15 16:59:17;;;;;;;4.33;0.93;;;21.00;1.00;;;;;;8331628;28;20178;-78
2022/05/15 17:03:18;;;;;;;2.67;1.40;;;21.00;1.00;;;;;;8326481;28;20281;-81
2022/05/15 17:07:19;;;;;;;3.23;0.40;;;20.90;1.00;;;;;;8315621;28;20222;-80
2022/05/15 17:11:21;;;;;;;1.77;0.80;;;20.90;1.00;;;;;;8326854;28;20189;-76
2022/05/15 17:15:25;;;;;;;1.77;0.80;;;20.80;1.00;;;;;;8340314;28;20221;-76
2022/05/15 17:19:26;;;;;;;3.73;0.70;;;20.80;1.00;;;;;;8321261;28;20186;-76
2022/05/15 17:23:27;;;;;;;3.47;0.90;;;21.00;1.00;;;;;;8336033;28;20197;-77
2022/05/15 17:27:28;;;;;;;2.13;1.30;;;21.70;1.00;;;;;;8328619;28;20217;-77
2022/05/15 17:35:49;;;;;;;3.00;1.70;;;23.00;1.00;;;;;;8341054;28;20221;-78
2022/05/15 17:39:50;;;;;;;3.87;1.80;;;23.40;1.00;;;;;;8345828;28;20204;-78
2022/05/15 17:43:54;;;;;;;4.83;3.03;;;23.80;1.00;;;;;;8327627;28;20192;-78
2022/05/15 17:47:56;;;;;;;14.90;8.83;;;24.00;1.00;;;;;;8335161;28;20186;-78
2022/05/15 17:51:57;;;;;;;10.17;5.47;;;24.30;1.00;;;;;;8321359;28;20185;-77
2022/05/15 17:55:58;;;;;;;2.23;1.20;;;24.50;1.00;;;;;;8330534;28;20264;-78
2022/05/15 17:59:59;;;;;;;2.63;1.47;;;24.60;1.00;;;;;;8325506;28;20186;-78
2022/05/15 18:04:00;;;;;;;2.27;1.10;;;24.60;1.00;;;;;;8320142;28;20213;-78
2022/05/15 18:08:01;;;;;;;4.40;2.17;;;24.50;1.00;;;;;;8319084;28;20253;-77
2022/05/15 18:12:07;;;;;;;5.90;3.30;;;24.40;1.00;;;;;;8337236;28;20186;-76
2022/05/15 18:16:09;;;;;;;6.57;3.60;;;24.20;1.00;;;;;;8339292;28;20209;-76
2022/05/15 18:20:12;;;;;;;4.73;2.40;;;24.00;1.00;;;;;;8317703;28;20185;-76
2022/05/15 18:24:13;;;;;;;4.20;2.00;;;23.40;1.00;;;;;;8336631;28;20190;-77
2022/05/15 18:28:17;;;;;;;2.60;1.13;;;22.50;1.00;;;;;;8324911;28;20198;-77
2022/05/15 18:32:18;;;;;;;1.70;1.10;;;21.40;1.00;;;;;;8330604;28;20201;-77
2022/05/15 18:36:19;;;;;;;1.37;0.90;;;20.30;1.00;;;;;;8322119;28;20280;-76
2022/05/15 18:40:25;;;;;;;1.67;1.10;;;19.20;1.00;;;;;;8330523;28;20547;-76
2022/05/15 18:44:29;;;;;;;1.80;1.10;;;18.30;1.00;;;;;;8326462;28;20197;-81
2022/05/15 18:48:30;;;;;;;1.53;0.90;;;17.50;58.70;;;;;;8320876;28;20190;-77
2022/05/15 18:56:56;;;;;;;2.07;0.90;;;16.30;99.90;;;;;;8340914;28;20521;-79
2022/05/15 19:00:57;;;;;;;3.30;1.27;;;15.70;99.90;;;;;;8327585;28;20189;-75
2022/05/15 19:05:02;;;;;;;2.33;1.30;;;15.30;99.90;;;;;;8326762;28;20190;-75
2022/05/15 19:09:03;;;;;;;2.60;1.10;;;14.90;99.90;;;;;;8336722;28;20186;-78
2022/05/15 19:13:05;;;;;;;1.43;0.87;;;14.70;99.90;;;;;;8313026;28;20214;-78
2022/05/15 19:17:06;;;;;;;1.37;0.73;;;14.40;99.90;;;;;;8334131;28;20250;-77
2022/05/15 19:21:07;;;;;;;1.83;1.00;;;14.20;1.00;;;;;;8350877;28;20192;-77
2022/05/15 19:25:08;;;;;;;1.13;0.77;;;14.00;1.00;;;;;;8335500;28;20193;-79
2022/05/15 19:29:11;;;;;;;0.93;0.63;;;13.80;1.00;;;;;;8304867;28;20202;-77
2022/05/15 19:33:12;;;;;;;0.80;0.70;;;13.60;1.00;;;;;;8330971;28;20205;-78
2022/05/15 19:37:14;;;;;;;1.03;0.67;;;13.40;1.00;;;;;;8327571;28;20197;-78
2022/05/15 19:41:15;;;;;;;1.83;0.90;;;13.20;1.00;;;;;;8327675;28;20205;-78
2022/05/15 19:45:17;;;;;;;1.27;0.90;;;13.00;10.70;;;;;;8341883;28;20193;-77
2022/05/15 19:49:18;;;;;;;1.47;0.80;;;12.80;41.70;;;;;;8332130;28;20194;-78
2022/05/15 19:53:20;;;;;;;1.53;0.83;;;12.60;76.30;;;;;;8330128;28;20301;-78
2022/05/15 19:57:21;;;;;;;1.33;0.90;;;12.40;99.90;;;;;;8350059;28;20182;-78
2022/05/15 20:01:23;;;;;;;1.47;0.80;;;12.20;99.90;;;;;;8333043;28;20193;-78
2022/05/15 20:14:09;;;;;;;2.00;0.90;;;11.80;99.90;;;;;;8344516;28;20276;-79
2022/05/15 20:18:10;;;;;;;1.97;1.17;;;11.70;99.90;;;;;;8321457;28;20218;-78
2022/05/15 20:22:12;;;;;;;1.50;1.13;;;11.50;99.90;;;;;;8331661;28;20220;-78
2022/05/15 20:26:16;;;;;;;1.97;1.07;;;11.40;99.90;;;;;;8326761;28;20194;-78
2022/05/15 20:30:17;;;;;;;2.33;1.23;;;11.20;1.00;;;;;;8339159;28;20245;-77
2022/05/15 20:34:23;;;;;;;2.50;1.37;;;11.00;1.00;;;;;;8333031;28;20210;-78
2022/05/15 20:38:24;;;;;;;1.43;1.10;;;10.80;1.00;;;;;;8351874;28;20201;-79
2022/05/15 20:42:25;;;;;;;1.43;1.03;;;10.60;1.00;;;;;;8318818;28;20174;-77
2022/05/15 20:46:26;;;;;;;2.80;1.50;;;10.50;20.50;;;;;;8320397;28;20240;-78
2022/05/15 20:50:27;;;;;;;2.07;1.67;;;10.40;78.10;;;;;;8313305;28;20236;-77
2022/05/15 20:54:28;;;;;;;2.87;1.17;;;10.30;99.90;;;;;;8323459;28;20222;-78
2022/05/15 20:58:29;;;;;;;1.13;0.93;;;10.20;99.90;;;;;;8327821;28;20185;-77
2022/05/15 21:02:31;;;;;;;2.17;1.17;;;10.10;99.90;;;;;;8332875;28;20214;-77
2022/05/15 21:06:32;;;;;;;2.20;1.20;;;10.00;99.90;;;;;;8325323;28;20289;-78
2022/05/15 21:10:32;;;;;;;1.90;1.20;;;9.90;99.90;;;;;;8322458;28;20198;-76
2022/05/15 21:14:36;;;;;;;1.37;1.07;;;9.80;99.90;;;;;;8344631;28;20221;-78
2022/05/15 21:18:38;;;;;;;1.80;1.50;;;9.70;99.90;;;;;;8318121;28;20226;-77
2022/05/15 21:22:39;;;;;;;1.17;1.00;;;9.50;99.90;;;;;;8321235;28;20209;-78
2022/05/15 21:26:40;;;;;;;1.73;1.40;;;9.40;99.90;;;;;;8346204;28;20230;-78
2022/05/15 21:30:42;;;;;;;2.17;1.20;;;9.30;1.00;;;;;;8338706;28;20186;-78
2022/05/15 21:34:43;;;;;;;1.83;1.07;;;9.20;1.00;;;;;;8325760;28;20320;-78
2022/05/15 21:47:23;;;;;;;2.03;1.30;;;8.70;99.30;;;;;;8346339;28;20317;-78
2022/05/15 21:51:25;;;;;;;2.07;1.47;;;8.60;99.90;;;;;;8319084;28;20226;-78
2022/05/15 21:55:26;;;;;;;2.27;1.30;;;8.60;99.90;;;;;;8325784;28;20233;-77
2022/05/15 22:03:46;;;;;;;1.67;1.33;;;8.40;99.90;;;;;;8336751;28;20209;-77
2022/05/15 22:07:47;;;;;;;1.80;1.23;;;8.30;99.90;;;;;;8342239;28;20217;-78
2022/05/15 22:11:48;;;;;;;1.43;1.30;;;8.20;99.90;;;;;;8324777;28;20192;-78
2022/05/15 22:15:49;;;;;;;1.60;1.17;;;8.10;1.00;;;;;;8339404;28;20267;-80
2022/05/15 22:19:50;;;;;;;2.73;1.30;;;8.10;1.00;;;;;;8323058;28;20239;-77